Time;durP1;ratioP1;P1;durP2;ratioP2;P2;SDS_P1;SDS_P2;PMS_P1;PMS_P2;Temp;Humidity;BMP_temperature;BMP_pressure;BME280_temperature;BME280_humidity;BME280_pressure;Samples;Min_cycle;Max_cycle;Signal;HPM_P1;HPM_P2
2024/04/24 00:00:49;;;;;;;0.22;0.22;;;3.50;99.90;;;;;;5401179;26;20041;-78
2024/04/24 00:03:18;;;;;;;0.50;0.50;;;3.50;99.90;;;;;;5406481;26;20493;-78
2024/04/24 00:05:44;;;;;;;0.75;0.75;;;3.60;99.90;;;;;;5391614;26;20036;-78
2024/04/24 00:08:10;;;;;;;0.52;0.20;;;3.50;99.90;;;;;;5401786;26;20035;-78
2024/04/24 00:10:37;;;;;;;0.82;0.80;;;3.50;99.90;;;;;;5398831;26;20036;-79
2024/04/24 00:13:03;;;;;;;0.35;0.30;;;3.40;99.90;;;;;;5396403;26;20035;-79
2024/04/24 00:15:29;;;;;;;0.25;0.25;;;3.40;99.90;;;;;;5388477;26;20036;-78
2024/04/24 00:17:57;;;;;;;0.47;0.47;;;3.30;99.90;;;;;;5392099;26;20383;-79
2024/04/24 00:20:23;;;;;;;0.25;0.25;;;3.10;99.90;;;;;;5393741;26;20060;-79
2024/04/24 00:22:50;;;;;;;0.55;0.55;;;2.80;99.90;;;;;;5363083;26;20036;-79
2024/04/24 00:25:16;;;;;;;0.10;0.10;;;2.60;99.90;;;;;;5391187;26;20032;-78
2024/04/24 00:27:42;;;;;;;3.92;1.20;;;2.40;1.00;;;;;;5396191;26;20036;-79
2024/04/24 00:30:12;;;;;;;0.35;0.35;;;2.20;1.00;;;;;;5380185;26;20028;-79
2024/04/24 00:32:40;;;;;;;0.10;0.10;;;2.10;1.00;;;;;;5390491;26;20040;-79
2024/04/24 00:35:06;;;;;;;0.90;0.55;;;1.90;1.10;;;;;;5393616;26;20386;-80
2024/04/24 00:37:33;;;;;;;0.03;0.03;;;1.80;27.70;;;;;;5391933;26;20036;-79
2024/04/24 00:39:59;;;;;;;0.10;0.10;;;1.70;72.10;;;;;;5396544;26;20036;-79
2024/04/24 00:42:25;;;;;;;0.30;0.30;;;1.70;97.70;;;;;;5388887;26;20035;-78
2024/04/24 00:44:51;;;;;;;0.60;0.60;;;1.80;99.90;;;;;;5393971;26;20036;-78
2024/04/24 00:47:18;;;;;;;0.03;0.03;;;1.80;99.90;;;;;;5396446;26;20036;-78
2024/04/24 00:49:46;;;;;;;1.33;1.23;;;1.80;99.90;;;;;;5402736;26;20027;-79
2024/04/24 00:52:12;;;;;;;0.13;0.13;;;1.70;99.90;;;;;;5359188;26;20031;-79
2024/04/24 00:54:39;;;;;;;0.55;0.55;;;1.70;99.90;;;;;;5394432;26;20220;-79
2024/04/24 00:57:06;;;;;;;0.30;0.30;;;1.70;99.90;;;;;;5390674;26;20101;-78
2024/04/24 00:59:32;;;;;;;1.20;1.20;;;1.80;99.90;;;;;;5394935;26;20035;-79
2024/04/24 01:01:58;;;;;;;1.75;1.05;;;1.70;99.90;;;;;;5397667;26;20040;-79
2024/04/24 01:04:25;;;;;;;0.40;0.40;;;1.70;99.90;;;;;;5392450;26;20048;-78
2024/04/24 01:06:51;;;;;;;0.47;0.47;;;1.60;99.90;;;;;;5391900;26;20040;-79
2024/04/24 01:09:17;;;;;;;0.68;0.68;;;1.60;99.90;;;;;;5397547;26;20107;-79
2024/04/24 01:11:43;;;;;;;0.40;0.40;;;1.50;99.90;;;;;;5397248;26;20031;-79
2024/04/24 01:14:09;;;;;;;12.90;1.60;;;1.40;99.90;;;;;;5392376;26;20381;-79
2024/04/24 01:16:39;;;;;;;0.32;0.32;;;1.40;99.90;;;;;;5389088;26;20032;-78
2024/04/24 01:19:36;;;;;;;0.30;0.30;;;1.40;99.90;;;;;;5366592;26;20035;-79
2024/04/24 01:22:26;;;;;;;0.10;0.10;;;1.30;99.90;;;;;;5378111;26;20028;-79
2024/04/24 01:25:05;;;;;;;0.55;0.55;;;1.30;99.90;;;;;;5392058;26;20036;-80
2024/04/24 01:27:31;;;;;;;0.40;0.40;;;1.30;99.90;;;;;;5390040;26;20035;-80
2024/04/24 01:29:58;;;;;;;0.00;0.00;;;1.30;99.90;;;;;;5390620;26;20037;-80
2024/04/24 01:32:24;;;;;;;0.10;0.10;;;1.30;99.90;;;;;;5393167;26;20035;-80
2024/04/24 01:34:50;;;;;;;1.00;0.82;;;1.40;99.90;;;;;;5369652;26;20041;-80
2024/04/24 01:37:16;;;;;;;0.40;0.40;;;1.40;99.90;;;;;;5396197;26;20032;-80
2024/04/24 01:39:42;;;;;;;0.15;0.15;;;1.30;99.90;;;;;;5392736;26;20040;-80
2024/04/24 01:42:08;;;;;;;0.20;0.20;;;1.20;99.90;;;;;;5370781;26;20028;-79
2024/04/24 01:44:35;;;;;;;0.30;0.30;;;1.20;99.90;;;;;;5391705;26;20029;-80
2024/04/24 01:47:01;;;;;;;0.32;0.32;;;1.20;99.90;;;;;;5391201;26;20459;-79
2024/04/24 01:49:27;;;;;;;0.77;0.77;;;1.20;99.90;;;;;;5392261;26;20033;-79
2024/04/24 01:51:53;;;;;;;0.22;0.22;;;1.30;99.90;;;;;;5392113;26;20040;-80
2024/04/24 01:54:19;;;;;;;0.10;0.10;;;1.40;99.90;;;;;;5395989;26;20032;-79
2024/04/24 01:56:45;;;;;;;0.70;0.52;;;1.40;99.90;;;;;;5394067;26;20027;-80
2024/04/24 01:59:11;;;;;;;0.22;0.22;;;1.50;99.90;;;;;;5394730;26;20040;-80
2024/04/24 02:01:38;;;;;;;0.50;0.50;;;1.60;99.90;;;;;;5371968;26;20040;-80
2024/04/24 02:04:04;;;;;;;0.10;0.10;;;1.70;99.90;;;;;;5391655;26;20050;-80
2024/04/24 02:06:30;;;;;;;1.17;1.08;;;1.80;99.90;;;;;;5378588;26;20040;-79
2024/04/24 02:08:56;;;;;;;0.20;0.20;;;1.90;99.90;;;;;;5389370;26;20040;-80
2024/04/24 02:11:22;;;;;;;0.08;0.08;;;1.90;99.90;;;;;;5387427;26;20032;-79
2024/04/24 02:13:48;;;;;;;0.63;0.60;;;1.90;99.90;;;;;;5389408;26;20040;-80
2024/04/24 02:16:15;;;;;;;0.05;0.05;;;1.90;99.90;;;;;;5390100;26;20032;-80
2024/04/24 02:18:41;;;;;;;0.40;0.40;;;2.10;99.90;;;;;;5387832;26;20040;-79
2024/04/24 02:21:08;;;;;;;0.20;0.05;;;2.10;99.90;;;;;;5391728;26;20045;-79
2024/04/24 02:23:34;;;;;;;0.15;0.15;;;2.20;99.90;;;;;;5390555;26;20033;-79
2024/04/24 02:26:08;;;;;;;0.20;0.20;;;2.30;91.90;;;;;;5396692;26;20036;-79
2024/04/24 02:28:34;;;;;;;0.85;0.82;;;2.40;99.90;;;;;;5394075;26;20036;-80
2024/04/24 02:31:02;;;;;;;0.10;0.10;;;2.50;91.50;;;;;;5390262;26;20032;-78
2024/04/24 02:33:28;;;;;;;0.30;0.30;;;2.50;34.70;;;;;;5392731;26;20376;-78
2024/04/24 02:35:55;;;;;;;0.47;0.47;;;2.50;20.80;;;;;;5387782;26;20386;-79
2024/04/24 02:38:22;;;;;;;0.88;0.88;;;2.40;32.10;;;;;;5390517;26;20033;-79
2024/04/24 02:40:48;;;;;;;0.10;0.10;;;2.30;67.60;;;;;;5391770;26;20397;-79
2024/04/24 02:43:14;;;;;;;0.20;0.20;;;2.30;97.80;;;;;;5386710;26;20040;-79
2024/04/24 02:45:40;;;;;;;1.50;1.40;;;2.30;99.90;;;;;;5396864;26;20032;-79
2024/04/24 02:48:06;;;;;;;4.03;0.65;;;2.20;99.90;;;;;;5389057;26;20032;-79
2024/04/24 02:50:33;;;;;;;0.00;0.00;;;2.20;99.90;;;;;;5393363;26;20043;-79
2024/04/24 02:52:59;;;;;;;0.05;0.05;;;2.00;99.90;;;;;;5391970;26;20069;-79
2024/04/24 02:55:25;;;;;;;0.10;0.10;;;2.00;99.90;;;;;;5393886;26;20031;-79
2024/04/24 02:57:51;;;;;;;0.00;0.00;;;1.90;99.90;;;;;;5367188;26;20035;-79
2024/04/24 03:00:18;;;;;;;0.63;0.63;;;1.90;99.90;;;;;;5392013;26;20032;-79
2024/04/24 03:02:44;;;;;;;0.17;0.17;;;1.80;99.90;;;;;;5393475;26;20039;-79
2024/04/24 03:05:10;;;;;;;0.30;0.30;;;1.90;99.90;;;;;;5394344;26;20500;-80
2024/04/24 03:07:37;;;;;;;0.20;0.20;;;1.90;99.90;;;;;;5391757;26;20031;-80
2024/04/24 03:10:03;;;;;;;0.10;0.10;;;2.00;99.90;;;;;;5394280;26;20036;-79
2024/04/24 03:12:30;;;;;;;0.20;0.20;;;2.00;99.90;;;;;;5394852;26;20052;-79
2024/04/24 03:14:56;;;;;;;0.55;0.30;;;2.20;99.90;;;;;;5393288;26;20023;-79
2024/04/24 03:17:22;;;;;;;0.28;0.28;;;2.20;99.90;;;;;;5403856;26;20041;-79
2024/04/24 03:19:48;;;;;;;0.43;0.43;;;2.20;99.90;;;;;;5399042;26;20067;-80
2024/04/24 03:22:14;;;;;;;0.63;0.63;;;2.20;99.90;;;;;;5397025;26;20045;-79
2024/04/24 03:24:43;;;;;;;0.20;0.20;;;2.30;99.90;;;;;;5396062;26;20368;-79
2024/04/24 03:27:09;;;;;;;0.30;0.30;;;2.30;99.90;;;;;;5390683;26;20032;-79
2024/04/24 03:29:35;;;;;;;2.58;2.25;;;2.50;99.90;;;;;;5393213;26;20024;-80
2024/04/24 03:32:01;;;;;;;0.77;0.77;;;2.60;99.90;;;;;;5376144;26;20035;-79
2024/04/24 03:34:27;;;;;;;1.60;0.60;;;3.00;99.90;;;;;;5395989;26;20031;-78
2024/04/24 03:36:54;;;;;;;0.30;0.30;;;3.50;79.90;;;;;;5391008;26;20391;-78
2024/04/24 03:39:20;;;;;;;1.52;1.10;;;3.80;1.00;;;;;;5391897;26;20035;-79
2024/04/24 03:41:46;;;;;;;0.65;0.65;;;4.00;1.00;;;;;;5398561;26;20946;-78
2024/04/24 03:44:12;;;;;;;0.98;0.98;;;4.20;1.00;;;;;;5391338;26;20031;-79
2024/04/24 03:46:40;;;;;;;0.77;0.77;;;4.30;1.00;;;;;;5395392;26;20040;-79
2024/04/24 03:49:07;;;;;;;0.22;0.22;;;4.40;99.90;;;;;;5388717;26;20119;-79
2024/04/24 03:51:33;;;;;;;0.40;0.40;;;4.50;99.90;;;;;;5396344;26;20379;-79
2024/04/24 03:53:59;;;;;;;0.20;0.20;;;4.70;99.90;;;;;;5392799;26;20673;-79
2024/04/24 03:56:25;;;;;;;0.95;0.82;;;4.90;99.90;;;;;;5398496;26;20044;-80
2024/04/24 03:58:52;;;;;;;0.95;0.95;;;5.00;99.90;;;;;;5372229;26;20036;-79
2024/04/24 04:01:18;;;;;;;4.13;2.08;;;4.90;99.90;;;;;;5392544;26;20481;-78
2024/04/24 04:03:44;;;;;;;0.40;0.40;;;4.70;99.90;;;;;;5366628;26;20032;-77
2024/04/24 04:06:10;;;;;;;2.30;1.33;;;4.40;4.10;;;;;;5401277;26;20044;-77
2024/04/24 04:08:36;;;;;;;0.40;0.40;;;4.20;99.90;;;;;;5391540;26;20055;-77
2024/04/24 04:11:02;;;;;;;0.70;0.70;;;3.90;99.90;;;;;;5391583;26;20031;-78
2024/04/24 04:13:29;;;;;;;0.20;0.20;;;3.80;99.90;;;;;;5390518;26;20032;-77
2024/04/24 04:15:55;;;;;;;1.30;1.20;;;3.80;1.00;;;;;;5377365;26;20039;-78
2024/04/24 04:18:21;;;;;;;0.43;0.43;;;3.70;1.00;;;;;;5395464;26;20040;-77
2024/04/24 04:20:47;;;;;;;1.08;0.98;;;3.70;1.00;;;;;;5365963;26;20056;-77
2024/04/24 04:23:14;;;;;;;0.85;0.85;;;3.70;1.00;;;;;;5392199;26;20032;-78
2024/04/24 04:25:40;;;;;;;0.85;0.85;;;3.70;1.00;;;;;;5390172;26;20040;-79
2024/04/24 04:28:07;;;;;;;3.10;1.70;;;3.70;16.20;;;;;;5393529;26;20032;-78
2024/04/24 04:30:33;;;;;;;1.17;0.88;;;3.70;22.70;;;;;;5392874;26;20028;-78
2024/04/24 04:32:59;;;;;;;0.73;0.73;;;3.70;33.20;;;;;;5371058;26;20028;-79
2024/04/24 04:35:25;;;;;;;0.13;0.13;;;3.80;34.50;;;;;;5388195;26;20036;-78
2024/04/24 04:37:51;;;;;;;8.68;0.90;;;3.70;36.60;;;;;;5389173;26;20027;-78
2024/04/24 04:40:17;;;;;;;2.28;1.17;;;3.70;48.90;;;;;;5389461;26;20040;-77
2024/04/24 04:42:44;;;;;;;1.30;1.23;;;3.70;57.60;;;;;;5394781;26;20043;-77
2024/04/24 04:45:10;;;;;;;0.35;0.35;;;3.70;48.00;;;;;;5390749;26;20035;-77
2024/04/24 04:47:36;;;;;;;1.63;1.55;;;3.70;29.70;;;;;;5379289;26;20039;-77
2024/04/24 04:50:02;;;;;;;2.65;2.42;;;3.80;26.00;;;;;;5391614;26;20386;-77
2024/04/24 04:52:30;;;;;;;1.45;1.35;;;3.80;16.20;;;;;;5393302;26;20040;-78
2024/04/24 04:54:56;;;;;;;1.48;1.02;;;3.80;18.00;;;;;;5391246;26;20040;-77
2024/04/24 04:57:22;;;;;;;2.00;1.83;;;3.90;20.00;;;;;;5375383;26;20028;-77
2024/04/24 04:59:50;;;;;;;1.30;0.93;;;3.90;1.00;;;;;;5396868;26;20501;-77
2024/04/24 05:02:16;;;;;;;2.47;1.90;;;4.00;1.00;;;;;;5395137;26;21385;-77
2024/04/24 05:04:42;;;;;;;2.38;1.13;;;4.00;14.00;;;;;;5386752;26;20056;-77
2024/04/24 05:07:10;;;;;;;1.35;1.08;;;4.10;29.10;;;;;;5401112;26;20036;-77
2024/04/24 05:09:36;;;;;;;1.38;1.27;;;4.00;43.30;;;;;;5390846;26;20489;-77
2024/04/24 05:12:02;;;;;;;0.85;0.85;;;4.00;63.70;;;;;;5389944;26;20035;-77
2024/04/24 05:14:28;;;;;;;1.30;1.20;;;4.10;94.10;;;;;;5390658;26;20481;-77
2024/04/24 05:16:54;;;;;;;3.08;1.45;;;4.20;99.90;;;;;;5363165;26;20044;-77
2024/04/24 05:19:20;;;;;;;1.13;1.13;;;4.30;99.90;;;;;;5393437;26;20031;-77
2024/04/24 05:21:47;;;;;;;2.55;1.23;;;4.30;99.90;;;;;;5388886;26;20032;-77
2024/04/24 05:24:14;;;;;;;2.08;1.98;;;4.30;99.90;;;;;;5389824;26;20031;-77
2024/04/24 05:29:25;;;;;;;0.85;0.85;;;4.20;99.90;;;;;;5392855;26;20032;-78
2024/04/24 05:31:51;;;;;;;7.10;3.90;;;4.20;1.00;;;;;;5398069;26;20048;-78
2024/04/24 05:34:17;;;;;;;3.58;1.95;;;4.00;1.00;;;;;;5394019;26;20035;-76
2024/04/24 05:36:44;;;;;;;0.82;0.82;;;4.00;99.90;;;;;;5392879;26;20040;-78
2024/04/24 05:39:10;;;;;;;2.47;1.70;;;3.90;99.90;;;;;;5390540;26;20059;-78
2024/04/24 05:41:36;;;;;;;1.75;1.30;;;3.90;1.00;;;;;;5396864;26;20043;-77
2024/04/24 05:44:02;;;;;;;1.33;1.23;;;3.90;1.00;;;;;;5399471;26;20480;-78
2024/04/24 05:46:28;;;;;;;2.45;2.25;;;3.90;1.00;;;;;;5371868;26;20031;-78
2024/04/24 05:48:55;;;;;;;1.58;1.50;;;3.80;1.00;;;;;;5389916;26;20036;-78
2024/04/24 05:51:21;;;;;;;2.47;2.05;;;3.90;1.00;;;;;;5350317;26;20031;-77
2024/04/24 05:53:47;;;;;;;0.95;0.82;;;3.90;1.00;;;;;;5385841;26;20060;-78
2024/04/24 05:56:13;;;;;;;2.67;2.42;;;3.80;1.00;;;;;;5387362;26;20040;-77
2024/04/24 05:58:42;;;;;;;1.83;0.68;;;3.80;1.00;;;;;;5390810;26;20027;-77
2024/04/24 06:01:10;;;;;;;1.08;1.05;;;3.80;7.70;;;;;;5373640;26;20072;-77
2024/04/24 06:03:36;;;;;;;5.78;1.30;;;3.80;59.60;;;;;;5365922;26;20064;-77
2024/04/24 06:06:02;;;;;;;4.50;1.65;;;3.90;99.90;;;;;;5391834;26;20027;-77
2024/04/24 06:08:28;;;;;;;0.25;0.25;;;4.00;99.90;;;;;;5387980;26;21104;-78
2024/04/24 06:10:54;;;;;;;3.60;2.30;;;4.00;99.90;;;;;;5387614;26;20029;-78
2024/04/24 06:13:20;;;;;;;1.08;1.08;;;4.10;99.90;;;;;;5400068;26;20040;-78
2024/04/24 06:15:46;;;;;;;0.93;0.77;;;4.20;99.90;;;;;;5385717;26;20032;-77
2024/04/24 06:18:13;;;;;;;3.83;3.00;;;4.30;99.90;;;;;;5387549;26;20048;-78
2024/04/24 06:20:39;;;;;;;4.15;2.63;;;4.40;99.90;;;;;;5403022;26;20405;-78
2024/04/24 06:23:05;;;;;;;1.02;1.02;;;4.40;99.90;;;;;;5375708;26;20505;-77
2024/04/24 06:25:31;;;;;;;0.63;0.63;;;4.50;99.90;;;;;;5394347;26;20203;-77
2024/04/24 06:27:58;;;;;;;2.80;2.55;;;4.60;99.90;;;;;;5395311;26;20036;-77
2024/04/24 06:30:24;;;;;;;2.53;2.33;;;4.70;99.90;;;;;;5386756;26;20036;-77
2024/04/24 06:32:50;;;;;;;2.15;1.92;;;4.80;92.40;;;;;;5397150;26;20027;-78
2024/04/24 06:35:19;;;;;;;2.13;2.00;;;5.00;95.70;;;;;;5404956;26;20035;-77
2024/04/24 06:37:47;;;;;;;0.40;0.40;;;5.00;47.00;;;;;;5367232;26;20038;-78
2024/04/24 06:40:14;;;;;;;0.70;0.70;;;4.90;1.00;;;;;;5393774;26;20036;-78
2024/04/24 06:42:40;;;;;;;1.17;0.85;;;4.90;1.00;;;;;;5382327;26;20043;-79
2024/04/24 06:45:06;;;;;;;3.58;2.72;;;5.00;1.00;;;;;;5378177;26;20060;-78
2024/04/24 06:47:32;;;;;;;1.77;1.67;;;5.00;1.00;;;;;;5404247;26;20040;-78
2024/04/24 06:49:59;;;;;;;2.08;1.98;;;5.00;1.00;;;;;;5392138;26;20072;-78
2024/04/24 06:52:25;;;;;;;1.80;1.70;;;5.20;1.00;;;;;;5386741;26;20385;-78
2024/04/24 06:54:51;;;;;;;9.13;3.67;;;5.20;1.00;;;;;;5382090;26;20048;-77
2024/04/24 06:57:18;;;;;;;1.65;1.42;;;5.20;1.00;;;;;;5394460;26;20041;-76
2024/04/24 06:59:46;;;;;;;0.55;0.55;;;5.20;1.00;;;;;;5395575;26;20036;-77
2024/04/24 07:02:13;;;;;;;1.50;1.40;;;5.10;1.00;;;;;;5391302;26;20031;-77
2024/04/24 07:04:39;;;;;;;1.15;1.15;;;5.20;1.00;;;;;;5367627;26;20047;-78
2024/04/24 07:07:05;;;;;;;0.85;0.85;;;5.20;99.90;;;;;;5402003;26;20036;-77
2024/04/24 07:09:31;;;;;;;1.92;1.23;;;5.20;1.00;;;;;;5382189;26;20044;-80
2024/04/24 07:11:57;;;;;;;1.75;0.75;;;5.20;1.00;;;;;;5393639;26;20516;-79
2024/04/24 07:14:24;;;;;;;0.60;0.60;;;5.30;1.00;;;;;;5400117;26;20044;-78
2024/04/24 07:16:50;;;;;;;0.45;0.45;;;5.20;1.00;;;;;;5396368;26;20039;-79
2024/04/24 07:19:16;;;;;;;1.65;1.55;;;5.40;1.00;;;;;;5406443;26;20040;-79
2024/04/24 07:21:42;;;;;;;0.45;0.45;;;5.40;1.00;;;;;;5390546;26;20040;-79
2024/04/24 07:24:08;;;;;;;1.75;1.42;;;5.40;1.00;;;;;;5403306;26;20481;-78
2024/04/24 07:26:35;;;;;;;2.47;2.28;;;5.50;1.00;;;;;;5369876;26;20039;-80
2024/04/24 07:29:01;;;;;;;0.93;0.75;;;5.50;1.00;;;;;;5388569;26;20040;-79
2024/04/24 07:31:27;;;;;;;0.55;0.55;;;5.60;1.00;;;;;;5388640;26;20036;-79
2024/04/24 07:33:54;;;;;;;1.80;1.60;;;5.50;1.00;;;;;;5394454;26;20352;-79
2024/04/24 07:36:20;;;;;;;3.72;2.33;;;5.40;99.90;;;;;;5393803;26;20045;-79
2024/04/24 07:38:47;;;;;;;2.75;2.25;;;5.50;99.90;;;;;;5398048;26;20036;-79
2024/04/24 07:41:15;;;;;;;0.85;0.85;;;5.70;99.90;;;;;;5405945;26;20032;-78
2024/04/24 07:43:41;;;;;;;1.83;1.73;;;5.90;99.90;;;;;;5403017;26;20116;-79
2024/04/24 07:46:07;;;;;;;1.48;1.35;;;6.00;99.90;;;;;;5389946;26;20039;-78
2024/04/24 07:48:33;;;;;;;1.40;1.25;;;6.00;99.90;;;;;;5390257;26;20040;-78
2024/04/24 07:51:00;;;;;;;1.38;0.85;;;6.10;99.90;;;;;;5396863;26;20032;-78
2024/04/24 07:53:26;;;;;;;0.90;0.90;;;5.90;99.90;;;;;;5405267;26;20063;-78
2024/04/24 07:55:52;;;;;;;1.23;1.02;;;6.00;99.90;;;;;;5408132;26;20031;-78
2024/04/24 07:58:18;;;;;;;0.90;0.85;;;6.10;99.90;;;;;;5378304;26;20051;-78
2024/04/24 08:00:45;;;;;;;1.48;1.38;;;6.40;99.90;;;;;;5402711;26;20028;-78
2024/04/24 08:03:11;;;;;;;1.48;1.38;;;6.70;99.90;;;;;;5395469;26;20485;-76
2024/04/24 08:05:37;;;;;;;0.93;0.93;;;7.00;99.90;;;;;;5388240;26;20505;-76
2024/04/24 08:08:04;;;;;;;0.75;0.75;;;7.20;99.90;;;;;;5386432;26;20037;-76
2024/04/24 08:10:30;;;;;;;2.83;1.65;;;7.30;99.90;;;;;;5377913;26;20036;-76
2024/04/24 08:12:56;;;;;;;1.77;1.52;;;6.90;9.00;;;;;;5349463;26;20048;-76
2024/04/24 08:15:22;;;;;;;1.13;1.02;;;7.70;99.90;;;;;;5366721;26;20036;-75
2024/04/24 08:17:48;;;;;;;0.98;0.85;;;8.40;26.70;;;;;;5392944;26;20036;-76
2024/04/24 08:20:15;;;;;;;1.60;1.50;;;8.60;8.70;;;;;;5409861;26;20039;-77
2024/04/24 08:22:41;;;;;;;3.30;1.98;;;8.20;1.00;;;;;;5381880;26;20052;-76
2024/04/24 08:25:07;;;;;;;2.72;1.95;;;7.40;1.00;;;;;;5392705;26;20031;-76
2024/04/24 08:27:33;;;;;;;1.70;1.55;;;7.20;46.00;;;;;;5401967;26;20493;-75
2024/04/24 08:30:00;;;;;;;0.95;0.95;;;7.30;84.70;;;;;;5398613;26;20040;-77
2024/04/24 08:32:27;;;;;;;1.75;1.38;;;7.10;32.10;;;;;;5412836;26;20055;-77
2024/04/24 08:34:53;;;;;;;1.40;1.30;;;7.40;25.30;;;;;;5391074;26;20044;-79
2024/04/24 08:37:19;;;;;;;2.13;1.70;;;7.60;68.90;;;;;;5385358;26;20571;-78
2024/04/24 08:39:45;;;;;;;1.50;1.40;;;7.90;17.20;;;;;;5394711;26;20039;-78
2024/04/24 08:42:12;;;;;;;1.75;1.45;;;8.10;1.00;;;;;;5402278;26;20035;-78
2024/04/24 08:44:42;;;;;;;0.95;0.93;;;8.10;1.00;;;;;;5401359;26;20036;-79
2024/04/24 08:47:08;;;;;;;1.65;1.27;;;8.10;1.00;;;;;;5387177;26;20119;-78
2024/04/24 08:49:36;;;;;;;1.42;1.23;;;8.50;1.00;;;;;;5386876;26;20386;-77
2024/04/24 08:52:04;;;;;;;0.70;0.70;;;9.00;1.00;;;;;;5395590;26;20044;-77
2024/04/24 08:54:34;;;;;;;0.88;0.80;;;9.30;99.90;;;;;;5392030;26;20060;-77
2024/04/24 08:57:02;;;;;;;1.60;1.13;;;9.20;99.90;;;;;;5388114;26;20426;-77
2024/04/24 08:59:30;;;;;;;0.82;0.82;;;8.90;1.00;;;;;;5381070;26;20036;-76
2024/04/24 09:02:07;;;;;;;0.80;0.68;;;9.10;99.90;;;;;;5389189;26;20047;-77
2024/04/24 09:04:35;;;;;;;3.58;1.55;;;8.70;99.90;;;;;;5393204;26;20039;-77
2024/04/24 09:07:03;;;;;;;1.73;1.63;;;8.90;99.90;;;;;;5398696;26;20047;-79
2024/04/24 09:09:30;;;;;;;2.55;1.27;;;9.20;99.90;;;;;;5381207;26;20147;-77
2024/04/24 09:12:00;;;;;;;4.28;1.13;;;8.90;99.90;;;;;;5384972;26;20040;-77
2024/04/24 09:14:29;;;;;;;2.93;2.17;;;8.90;99.90;;;;;;5389676;26;20040;-76
2024/04/24 09:16:56;;;;;;;0.68;0.68;;;8.70;99.90;;;;;;5364847;26;20043;-77
2024/04/24 09:19:23;;;;;;;2.00;1.20;;;8.50;99.90;;;;;;5390315;26;20036;-77
2024/04/24 09:21:49;;;;;;;2.58;0.80;;;8.70;99.90;;;;;;5394812;26;20040;-78
2024/04/24 09:24:16;;;;;;;1.15;1.15;;;8.80;99.90;;;;;;5386972;26;20028;-79
2024/04/24 09:26:43;;;;;;;1.35;1.05;;;8.90;77.40;;;;;;5386038;26;20036;-80
2024/04/24 09:29:10;;;;;;;0.40;0.40;;;9.00;70.40;;;;;;5392330;26;20452;-80
2024/04/24 09:31:37;;;;;;;1.55;1.30;;;9.10;99.90;;;;;;5390316;26;20067;-81
2024/04/24 09:34:06;;;;;;;2.67;0.75;;;9.40;25.10;;;;;;5362055;26;20047;-80
2024/04/24 09:36:37;;;;;;;1.75;1.35;;;9.50;27.10;;;;;;5370751;26;20044;-80
2024/04/24 09:39:23;;;;;;;;;;;9.70;7.60;;;;;;5386403;26;20032;-80
2024/04/24 09:41:50;;;;;;;0.50;0.50;;;9.50;1.00;;;;;;5358340;26;20294;-80
2024/04/24 09:44:18;;;;;;;0.30;0.30;;;8.80;3.00;;;;;;5396345;26;20035;-80
2024/04/24 09:46:51;;;;;;;0.32;0.32;;;8.70;48.80;;;;;;5392358;26;20040;-80
2024/04/24 09:49:19;;;;;;;0.15;0.15;;;8.70;1.30;;;;;;5385207;26;20028;-81
2024/04/24 09:51:46;;;;;;;1.70;1.23;;;8.80;30.10;;;;;;5384516;26;20056;-81
2024/04/24 09:54:13;;;;;;;0.32;0.32;;;8.80;40.50;;;;;;5393342;26;20051;-80
2024/04/24 09:56:45;;;;;;;2.10;0.85;;;8.90;1.00;;;;;;5403415;26;20028;-79
2024/04/24 09:59:13;;;;;;;0.55;0.55;;;8.90;29.60;;;;;;5408438;26;20027;-80
2024/04/24 10:01:48;;;;;;;0.63;0.63;;;8.80;53.80;;;;;;5390968;26;20041;-81
2024/04/24 10:04:15;;;;;;;0.25;0.25;;;8.50;1.00;;;;;;5389505;26;20036;-80
2024/04/24 10:06:45;;;;;;;0.57;0.47;;;7.90;1.00;;;;;;5375595;26;20002;-80
2024/04/24 10:09:15;;;;;;;0.10;0.10;;;6.70;62.80;;;;;;5411099;26;20032;-82
2024/04/24 10:11:50;;;;;;;0.20;0.20;;;6.40;99.90;;;;;;5373946;26;20039;-80
2024/04/24 10:14:20;;;;;;;0.10;0.10;;;5.90;99.90;;;;;;5405789;26;20036;-80
2024/04/24 10:16:50;;;;;;;4.55;0.73;;;5.50;99.90;;;;;;5389818;26;20361;-82
2024/04/24 10:19:17;;;;;;;0.30;0.30;;;5.00;1.00;;;;;;5397920;26;20036;-84
2024/04/24 10:21:48;;;;;;;0.60;0.60;;;4.70;45.50;;;;;;5371301;26;20027;-84
2024/04/24 10:24:16;;;;;;;0.77;0.77;;;4.50;99.90;;;;;;5383894;26;20044;-83
2024/04/24 10:26:44;;;;;;;0.20;0.20;;;4.50;99.90;;;;;;5376920;26;20032;-81
2024/04/24 10:29:16;;;;;;;0.10;0.10;;;4.70;99.90;;;;;;5390181;26;20055;-83
2024/04/24 10:31:44;;;;;;;0.30;0.30;;;5.10;99.90;;;;;;5396542;26;20036;-82
2024/04/24 10:34:12;;;;;;;0.10;0.10;;;5.40;99.90;;;;;;5403239;26;20036;-84
2024/04/24 10:36:38;;;;;;;0.50;0.50;;;5.70;14.30;;;;;;5407173;26;20031;-83
2024/04/24 10:39:04;;;;;;;0.20;0.20;;;6.20;1.00;;;;;;5379391;26;20037;-82
2024/04/24 10:41:32;;;;;;;0.10;0.10;;;6.60;1.00;;;;;;5358971;26;20048;-83
2024/04/24 10:43:58;;;;;;;0.28;0.28;;;6.70;99.90;;;;;;5364863;26;20031;-83
2024/04/24 10:46:25;;;;;;;0.55;0.55;;;6.80;99.90;;;;;;5404364;26;20333;-83
2024/04/24 10:48:56;;;;;;;0.10;0.10;;;7.00;99.90;;;;;;5377405;26;20035;-84
2024/04/24 10:51:48;;;;;;;1.90;1.17;;;7.40;99.90;;;;;;5382451;26;20027;-84
2024/04/24 10:54:15;;;;;;;0.47;0.47;;;7.50;99.90;;;;;;5388563;26;20039;-83
2024/04/24 10:56:42;;;;;;;0.20;0.20;;;7.60;99.90;;;;;;5376900;26;20029;-84
2024/04/24 10:59:09;;;;;;;1.45;0.57;;;7.60;32.00;;;;;;5382288;26;20039;-83
2024/04/24 11:01:36;;;;;;;0.10;0.10;;;7.60;1.00;;;;;;5351074;26;20035;-85
2024/04/24 11:04:03;;;;;;;0.30;0.30;;;7.80;91.00;;;;;;5378130;26;20275;-84
2024/04/24 11:06:30;;;;;;;0.43;0.43;;;8.30;71.20;;;;;;5390054;26;20036;-84
2024/04/24 11:08:57;;;;;;;0.63;0.63;;;8.70;1.00;;;;;;5370575;26;20039;-84
2024/04/24 11:11:27;;;;;;;1.05;0.95;;;8.80;1.00;;;;;;5369784;26;20047;-84
2024/04/24 11:14:03;;;;;;;0.55;0.55;;;8.80;1.00;;;;;;5410467;26;20035;-85
2024/04/24 11:16:30;;;;;;;0.30;0.30;;;9.00;1.00;;;;;;5365104;26;20296;-85
2024/04/24 11:18:56;;;;;;;0.50;0.50;;;9.30;1.00;;;;;;5380786;26;20322;-85
2024/04/24 11:21:23;;;;;;;0.32;0.32;;;9.20;99.90;;;;;;5396292;26;20043;-85
2024/04/24 11:23:53;;;;;;;0.32;0.28;;;9.60;1.00;;;;;;5373291;26;20373;-85
2024/04/24 11:26:33;;;;;;;0.15;0.15;;;9.50;1.00;;;;;;5408414;26;20036;-85
2024/04/24 11:29:07;;;;;;;1.08;1.02;;;9.80;1.00;;;;;;5351428;26;20028;-86
2024/04/24 11:31:39;;;;;;;0.90;0.40;;;9.90;99.90;;;;;;5357886;26;20031;-84
2024/04/24 11:34:06;;;;;;;0.15;0.15;;;9.70;99.90;;;;;;5357637;26;20032;-85
2024/04/24 11:36:33;;;;;;;0.30;0.30;;;9.50;99.90;;;;;;5381015;26;20036;-83
2024/04/24 11:39:00;;;;;;;0.20;0.20;;;8.80;99.90;;;;;;5410218;26;20043;-86
2024/04/24 11:41:28;;;;;;;0.50;0.50;;;8.10;1.00;;;;;;5394524;26;20043;-84
2024/04/24 11:43:55;;;;;;;0.13;0.13;;;7.70;1.00;;;;;;5389377;26;20044;-85
2024/04/24 11:46:22;;;;;;;0.17;0.17;;;7.70;99.90;;;;;;5396077;26;20039;-85
2024/04/24 11:48:52;;;;;;;0.20;0.20;;;7.70;99.90;;;;;;5402516;26;20396;-86
2024/04/24 11:51:19;;;;;;;0.17;0.17;;;8.00;99.90;;;;;;5376835;26;20476;-87
2024/04/24 11:53:49;;;;;;;0.43;0.43;;;8.20;99.90;;;;;;5388714;26;20028;-83
2024/04/24 11:56:16;;;;;;;0.20;0.20;;;8.60;99.90;;;;;;5402763;26;20036;-84
2024/04/24 11:58:43;;;;;;;0.10;0.10;;;9.00;99.90;;;;;;5384884;26;20035;-86
2024/04/24 12:01:09;;;;;;;0.20;0.20;;;9.00;1.00;;;;;;5363059;26;20028;-85
2024/04/24 12:03:35;;;;;;;0.20;0.20;;;8.70;1.00;;;;;;5397773;26;20044;-84
2024/04/24 12:06:02;;;;;;;0.85;0.50;;;8.70;1.00;;;;;;5386319;26;20040;-86
2024/04/24 12:08:29;;;;;;;0.20;0.20;;;8.70;1.00;;;;;;5333557;26;20059;-88
2024/04/24 12:10:59;;;;;;;0.15;0.15;;;8.70;1.00;;;;;;5396427;26;20040;-84
2024/04/24 12:13:28;;;;;;;0.95;0.90;;;8.80;1.00;;;;;;5369584;26;20039;-84
2024/04/24 12:15:59;;;;;;;0.10;0.10;;;9.20;1.00;;;;;;5393441;26;20035;-88
2024/04/24 12:18:27;;;;;;;0.63;0.63;;;9.80;1.00;;;;;;5372295;26;20370;-85
2024/04/24 12:20:54;;;;;;;0.30;0.30;;;10.00;1.00;;;;;;5370158;26;20681;-85
2024/04/24 12:23:25;;;;;;;0.10;0.10;;;10.30;1.00;;;;;;5393553;26;20035;-83
2024/04/24 12:25:54;;;;;;;0.30;0.30;;;10.50;1.00;;;;;;5408212;26;20028;-84
2024/04/24 12:28:21;;;;;;;0.65;0.65;;;10.50;1.00;;;;;;5378439;26;20466;-83
2024/04/24 12:30:51;;;;;;;0.30;0.30;;;10.80;99.90;;;;;;5385314;26;20035;-83
2024/04/24 12:33:17;;;;;;;0.20;0.20;;;10.90;99.90;;;;;;5401407;26;20031;-83
2024/04/24 12:35:43;;;;;;;0.43;0.43;;;11.00;99.90;;;;;;5411970;26;20007;-84
2024/04/24 12:38:10;;;;;;;0.30;0.30;;;11.10;99.90;;;;;;5420331;26;20000;-84
2024/04/24 12:40:36;;;;;;;0.60;0.60;;;10.90;99.90;;;;;;5397741;26;20012;-78
2024/04/24 12:43:03;;;;;;;0.55;0.55;;;10.50;99.90;;;;;;5394207;26;20040;-85
2024/04/24 12:45:34;;;;;;;0.80;0.80;;;10.10;99.90;;;;;;5376644;26;20040;-88
2024/04/24 12:48:00;;;;;;;0.55;0.50;;;9.30;1.00;;;;;;5378822;26;20033;-89
2024/04/24 12:50:26;;;;;;;0.20;0.20;;;7.60;96.80;;;;;;5362351;26;20036;-85
2024/04/24 12:52:52;;;;;;;0.85;0.50;;;6.60;1.00;;;;;;5354278;26;20047;-91
2024/04/24 12:55:19;;;;;;;0.40;0.40;;;6.00;1.00;;;;;;5380539;26;20036;-84
2024/04/24 12:57:45;;;;;;;0.20;0.20;;;5.80;12.30;;;;;;5378696;26;20036;-84
2024/04/24 13:00:11;;;;;;;0.40;0.40;;;5.90;99.90;;;;;;5399754;26;20035;-85
2024/04/24 13:02:38;;;;;;;0.20;0.20;;;6.00;99.90;;;;;;5350522;26;20032;-85